sensor_id;sensor_type;location;lat;lon;timestamp;P1;durP1;ratioP1;P2;durP2;ratioP2
4148;SDS011;2088;51.032;7.082;2023-07-22T00:02:13;7.13;;;3.47;;
4148;SDS011;2088;51.032;7.082;2023-07-22T00:04:42;11.10;;;4.87;;
4148;SDS011;2088;51.032;7.082;2023-07-22T00:07:09;4.13;;;3.47;;
4148;SDS011;2088;51.032;7.082;2023-07-22T00:09:36;5.07;;;3.50;;
4148;SDS011;2088;51.032;7.082;2023-07-22T00:12:06;9.27;;;4.20;;
4148;SDS011;2088;51.032;7.082;2023-07-22T00:14:35;4.53;;;3.27;;
4148;SDS011;2088;51.032;7.082;2023-07-22T00:17:03;6.40;;;4.00;;
4148;SDS011;2088;51.032;7.082;2023-07-22T00:19:30;6.10;;;3.83;;
4148;SDS011;2088;51.032;7.082;2023-07-22T00:21:59;7.50;;;3.30;;
4148;SDS011;2088;51.032;7.082;2023-07-22T00:24:26;7.10;;;3.67;;
4148;SDS011;2088;51.032;7.082;2023-07-22T00:26:54;6.63;;;4.17;;
4148;SDS011;2088;51.032;7.082;2023-07-22T00:29:21;6.20;;;3.40;;
4148;SDS011;2088;51.032;7.082;2023-07-22T00:31:48;5.53;;;3.10;;
4148;SDS011;2088;51.032;7.082;2023-07-22T00:34:15;5.60;;;4.00;;
4148;SDS011;2088;51.032;7.082;2023-07-22T00:36:42;6.43;;;3.47;;
4148;SDS011;2088;51.032;7.082;2023-07-22T00:39:12;9.70;;;4.40;;
4148;SDS011;2088;51.032;7.082;2023-07-22T00:41:39;7.70;;;4.50;;
4148;SDS011;2088;51.032;7.082;2023-07-22T00:44:09;6.33;;;4.17;;
4148;SDS011;2088;51.032;7.082;2023-07-22T00:46:36;6.33;;;3.40;;
4148;SDS011;2088;51.032;7.082;2023-07-22T00:49:04;6.90;;;4.13;;
4148;SDS011;2088;51.032;7.082;2023-07-22T00:51:32;4.97;;;3.37;;
4148;SDS011;2088;51.032;7.082;2023-07-22T00:53:59;9.20;;;4.10;;
4148;SDS011;2088;51.032;7.082;2023-07-22T00:56:30;5.17;;;3.20;;
4148;SDS011;2088;51.032;7.082;2023-07-22T00:58:58;6.80;;;4.40;;
4148;SDS011;2088;51.032;7.082;2023-07-22T01:01:25;6.63;;;3.37;;
4148;SDS011;2088;51.032;7.082;2023-07-22T01:03:52;6.27;;;3.73;;
4148;SDS011;2088;51.032;7.082;2023-07-22T01:06:20;9.30;;;4.57;;
4148;SDS011;2088;51.032;7.082;2023-07-22T01:08:47;8.03;;;3.90;;
4148;SDS011;2088;51.032;7.082;2023-07-22T01:11:14;8.03;;;4.57;;
4148;SDS011;2088;51.032;7.082;2023-07-22T01:13:43;4.70;;;3.53;;
4148;SDS011;2088;51.032;7.082;2023-07-22T01:16:10;3.77;;;2.60;;
4148;SDS011;2088;51.032;7.082;2023-07-22T01:18:38;7.90;;;4.10;;
4148;SDS011;2088;51.032;7.082;2023-07-22T01:21:05;6.27;;;3.67;;
4148;SDS011;2088;51.032;7.082;2023-07-22T01:23:34;5.87;;;3.60;;
4148;SDS011;2088;51.032;7.082;2023-07-22T01:26:02;5.40;;;3.63;;
4148;SDS011;2088;51.032;7.082;2023-07-22T01:28:29;5.40;;;3.70;;
4148;SDS011;2088;51.032;7.082;2023-07-22T01:30:56;5.53;;;3.60;;
4148;SDS011;2088;51.032;7.082;2023-07-22T01:33:23;5.33;;;3.27;;
4148;SDS011;2088;51.032;7.082;2023-07-22T01:35:52;7.93;;;3.60;;
4148;SDS011;2088;51.032;7.082;2023-07-22T01:38:19;5.50;;;3.13;;
4148;SDS011;2088;51.032;7.082;2023-07-22T01:40:48;9.90;;;4.73;;
4148;SDS011;2088;51.032;7.082;2023-07-22T01:43:15;5.60;;;3.60;;
4148;SDS011;2088;51.032;7.082;2023-07-22T01:45:42;8.63;;;3.30;;
4148;SDS011;2088;51.032;7.082;2023-07-22T01:48:09;7.07;;;3.90;;
4148;SDS011;2088;51.032;7.082;2023-07-22T01:50:36;7.77;;;4.67;;
4148;SDS011;2088;51.032;7.082;2023-07-22T01:53:03;7.73;;;5.07;;
4148;SDS011;2088;51.032;7.082;2023-07-22T01:55:31;7.80;;;4.00;;
4148;SDS011;2088;51.032;7.082;2023-07-22T01:58:00;8.20;;;4.50;;
4148;SDS011;2088;51.032;7.082;2023-07-22T02:00:27;9.13;;;4.70;;
4148;SDS011;2088;51.032;7.082;2023-07-22T02:02:54;6.80;;;4.63;;
4148;SDS011;2088;51.032;7.082;2023-07-22T02:05:21;7.10;;;4.03;;
4148;SDS011;2088;51.032;7.082;2023-07-22T02:07:48;7.80;;;4.67;;
4148;SDS011;2088;51.032;7.082;2023-07-22T02:10:15;11.03;;;4.83;;
4148;SDS011;2088;51.032;7.082;2023-07-22T02:12:43;8.30;;;3.60;;
4148;SDS011;2088;51.032;7.082;2023-07-22T02:15:11;7.27;;;4.47;;
4148;SDS011;2088;51.032;7.082;2023-07-22T02:17:38;6.47;;;4.30;;
4148;SDS011;2088;51.032;7.082;2023-07-22T02:20:06;7.43;;;4.57;;
4148;SDS011;2088;51.032;7.082;2023-07-22T02:22:34;7.87;;;4.57;;
4148;SDS011;2088;51.032;7.082;2023-07-22T02:25:01;7.27;;;4.43;;
4148;SDS011;2088;51.032;7.082;2023-07-22T02:27:28;10.90;;;5.43;;
4148;SDS011;2088;51.032;7.082;2023-07-22T02:29:55;8.70;;;4.90;;
4148;SDS011;2088;51.032;7.082;2023-07-22T02:32:24;7.77;;;4.60;;
4148;SDS011;2088;51.032;7.082;2023-07-22T02:34:51;12.33;;;5.30;;
4148;SDS011;2088;51.032;7.082;2023-07-22T02:37:18;9.80;;;4.20;;
4148;SDS011;2088;51.032;7.082;2023-07-22T02:39:45;8.97;;;4.90;;
4148;SDS011;2088;51.032;7.082;2023-07-22T02:42:12;10.70;;;4.43;;
4148;SDS011;2088;51.032;7.082;2023-07-22T02:44:39;5.83;;;4.17;;
4148;SDS011;2088;51.032;7.082;2023-07-22T02:47:06;7.60;;;4.87;;
4148;SDS011;2088;51.032;7.082;2023-07-22T02:49:35;4.93;;;4.10;;
4148;SDS011;2088;51.032;7.082;2023-07-22T02:52:02;11.43;;;5.10;;
4148;SDS011;2088;51.032;7.082;2023-07-22T02:54:29;8.27;;;4.57;;
4148;SDS011;2088;51.032;7.082;2023-07-22T02:56:56;8.10;;;4.47;;
4148;SDS011;2088;51.032;7.082;2023-07-22T02:59:23;9.13;;;4.70;;
4148;SDS011;2088;51.032;7.082;2023-07-22T03:01:50;6.60;;;4.07;;
4148;SDS011;2088;51.032;7.082;2023-07-22T03:04:18;9.30;;;4.70;;
4148;SDS011;2088;51.032;7.082;2023-07-22T03:06:46;8.20;;;4.57;;
4148;SDS011;2088;51.032;7.082;2023-07-22T03:09:14;5.60;;;4.00;;
4148;SDS011;2088;51.032;7.082;2023-07-22T03:11:41;6.53;;;4.17;;
4148;SDS011;2088;51.032;7.082;2023-07-22T03:14:08;7.57;;;4.83;;
4148;SDS011;2088;51.032;7.082;2023-07-22T03:16:35;8.93;;;3.77;;
4148;SDS011;2088;51.032;7.082;2023-07-22T03:19:02;6.43;;;3.80;;
4148;SDS011;2088;51.032;7.082;2023-07-22T03:21:29;6.30;;;4.70;;
4148;SDS011;2088;51.032;7.082;2023-07-22T03:23:57;10.87;;;4.53;;
4148;SDS011;2088;51.032;7.082;2023-07-22T03:26:25;8.07;;;4.00;;
4148;SDS011;2088;51.032;7.082;2023-07-22T03:28:52;5.60;;;3.77;;
4148;SDS011;2088;51.032;7.082;2023-07-22T03:31:19;6.30;;;4.10;;
4148;SDS011;2088;51.032;7.082;2023-07-22T03:33:46;11.50;;;4.40;;
4148;SDS011;2088;51.032;7.082;2023-07-22T03:36:14;5.57;;;3.70;;
4148;SDS011;2088;51.032;7.082;2023-07-22T03:38:42;6.70;;;4.07;;
4148;SDS011;2088;51.032;7.082;2023-07-22T03:41:10;6.87;;;4.10;;
4148;SDS011;2088;51.032;7.082;2023-07-22T03:43:37;4.60;;;3.77;;
4148;SDS011;2088;51.032;7.082;2023-07-22T03:46:04;6.40;;;3.93;;
4148;SDS011;2088;51.032;7.082;2023-07-22T03:48:31;9.77;;;4.80;;
4148;SDS011;2088;51.032;7.082;2023-07-22T03:50:58;14.77;;;3.70;;
4148;SDS011;2088;51.032;7.082;2023-07-22T03:53:25;4.23;;;3.33;;
4148;SDS011;2088;51.032;7.082;2023-07-22T03:55:52;11.00;;;4.07;;
4148;SDS011;2088;51.032;7.082;2023-07-22T03:58:21;7.03;;;4.10;;
4148;SDS011;2088;51.032;7.082;2023-07-22T04:00:48;6.80;;;4.00;;
4148;SDS011;2088;51.032;7.082;2023-07-22T04:03:15;6.07;;;4.33;;
4148;SDS011;2088;51.032;7.082;2023-07-22T04:05:42;6.73;;;4.40;;
4148;SDS011;2088;51.032;7.082;2023-07-22T04:08:09;5.33;;;3.70;;
4148;SDS011;2088;51.032;7.082;2023-07-22T04:10:36;9.33;;;4.10;;
4148;SDS011;2088;51.032;7.082;2023-07-22T04:13:04;9.00;;;4.13;;
4148;SDS011;2088;51.032;7.082;2023-07-22T04:15:32;5.60;;;3.93;;
4148;SDS011;2088;51.032;7.082;2023-07-22T04:17:59;4.27;;;3.30;;
4148;SDS011;2088;51.032;7.082;2023-07-22T04:20:26;5.90;;;3.60;;
4148;SDS011;2088;51.032;7.082;2023-07-22T04:22:53;8.17;;;4.47;;
4148;SDS011;2088;51.032;7.082;2023-07-22T04:25:20;5.20;;;3.77;;
4148;SDS011;2088;51.032;7.082;2023-07-22T04:27:47;6.73;;;4.20;;
4148;SDS011;2088;51.032;7.082;2023-07-22T04:30:14;6.87;;;3.50;;
4148;SDS011;2088;51.032;7.082;2023-07-22T04:32:47;3.77;;;3.10;;
4148;SDS011;2088;51.032;7.082;2023-07-22T04:35:15;7.60;;;3.47;;
4148;SDS011;2088;51.032;7.082;2023-07-22T04:37:42;7.00;;;3.63;;
4148;SDS011;2088;51.032;7.082;2023-07-22T04:40:10;3.43;;;2.90;;
4148;SDS011;2088;51.032;7.082;2023-07-22T04:42:39;5.93;;;3.20;;
4148;SDS011;2088;51.032;7.082;2023-07-22T04:45:07;6.80;;;4.63;;
4148;SDS011;2088;51.032;7.082;2023-07-22T04:47:34;5.47;;;3.33;;
4148;SDS011;2088;51.032;7.082;2023-07-22T04:50:03;7.57;;;4.47;;
4148;SDS011;2088;51.032;7.082;2023-07-22T04:52:32;5.07;;;3.77;;
4148;SDS011;2088;51.032;7.082;2023-07-22T04:54:59;18.10;;;4.67;;
4148;SDS011;2088;51.032;7.082;2023-07-22T04:57:27;8.17;;;3.80;;
4148;SDS011;2088;51.032;7.082;2023-07-22T04:59:54;6.90;;;3.70;;
4148;SDS011;2088;51.032;7.082;2023-07-22T05:02:21;9.27;;;3.47;;
4148;SDS011;2088;51.032;7.082;2023-07-22T05:04:49;3.70;;;2.80;;
4148;SDS011;2088;51.032;7.082;2023-07-22T05:07:17;3.47;;;3.13;;
4148;SDS011;2088;51.032;7.082;2023-07-22T05:09:44;6.83;;;3.80;;
4148;SDS011;2088;51.032;7.082;2023-07-22T05:12:11;5.37;;;3.27;;
4148;SDS011;2088;51.032;7.082;2023-07-22T05:14:38;6.80;;;3.87;;
4148;SDS011;2088;51.032;7.082;2023-07-22T05:17:05;8.80;;;4.40;;
4148;SDS011;2088;51.032;7.082;2023-07-22T05:19:33;6.40;;;3.43;;
4148;SDS011;2088;51.032;7.082;2023-07-22T05:22:00;8.40;;;3.67;;
4148;SDS011;2088;51.032;7.082;2023-07-22T05:24:28;5.07;;;3.83;;
4148;SDS011;2088;51.032;7.082;2023-07-22T05:26:55;6.13;;;3.57;;
4148;SDS011;2088;51.032;7.082;2023-07-22T05:29:22;11.83;;;4.10;;
4148;SDS011;2088;51.032;7.082;2023-07-22T05:31:49;4.80;;;3.17;;
4148;SDS011;2088;51.032;7.082;2023-07-22T05:34:17;5.67;;;3.30;;
4148;SDS011;2088;51.032;7.082;2023-07-22T05:36:44;6.37;;;3.70;;
4148;SDS011;2088;51.032;7.082;2023-07-22T05:39:11;4.03;;;3.20;;
4148;SDS011;2088;51.032;7.082;2023-07-22T05:41:40;8.37;;;5.37;;
4148;SDS011;2088;51.032;7.082;2023-07-22T05:44:07;5.20;;;2.90;;
4148;SDS011;2088;51.032;7.082;2023-07-22T05:46:34;9.80;;;3.93;;
4148;SDS011;2088;51.032;7.082;2023-07-22T05:49:03;3.67;;;3.10;;
4148;SDS011;2088;51.032;7.082;2023-07-22T05:51:30;5.00;;;3.27;;
4148;SDS011;2088;51.032;7.082;2023-07-22T05:53:57;6.10;;;3.47;;
4148;SDS011;2088;51.032;7.082;2023-07-22T05:56:24;9.23;;;4.03;;
4148;SDS011;2088;51.032;7.082;2023-07-22T05:58:53;7.80;;;4.57;;
4148;SDS011;2088;51.032;7.082;2023-07-22T06:01:20;5.17;;;3.40;;
4148;SDS011;2088;51.032;7.082;2023-07-22T06:03:47;6.90;;;3.67;;
4148;SDS011;2088;51.032;7.082;2023-07-22T06:06:15;6.37;;;3.33;;
4148;SDS011;2088;51.032;7.082;2023-07-22T06:08:42;4.10;;;3.13;;
4148;SDS011;2088;51.032;7.082;2023-07-22T06:11:09;5.23;;;4.10;;
4148;SDS011;2088;51.032;7.082;2023-07-22T06:13:36;5.90;;;3.43;;
4148;SDS011;2088;51.032;7.082;2023-07-22T06:16:05;4.73;;;3.97;;
4148;SDS011;2088;51.032;7.082;2023-07-22T06:18:32;5.83;;;3.93;;
4148;SDS011;2088;51.032;7.082;2023-07-22T06:20:59;4.63;;;3.40;;
4148;SDS011;2088;51.032;7.082;2023-07-22T06:23:26;6.00;;;3.70;;
4148;SDS011;2088;51.032;7.082;2023-07-22T06:25:53;6.60;;;4.30;;
4148;SDS011;2088;51.032;7.082;2023-07-22T06:28:20;8.70;;;4.57;;
4148;SDS011;2088;51.032;7.082;2023-07-22T06:30:47;9.90;;;4.57;;
4148;SDS011;2088;51.032;7.082;2023-07-22T06:33:16;4.57;;;3.27;;
4148;SDS011;2088;51.032;7.082;2023-07-22T06:35:43;7.30;;;3.57;;
4148;SDS011;2088;51.032;7.082;2023-07-22T06:38:10;9.20;;;4.43;;
4148;SDS011;2088;51.032;7.082;2023-07-22T06:40:37;7.67;;;4.47;;
4148;SDS011;2088;51.032;7.082;2023-07-22T06:43:04;8.00;;;4.87;;
4148;SDS011;2088;51.032;7.082;2023-07-22T06:45:31;7.10;;;4.20;;
4148;SDS011;2088;51.032;7.082;2023-07-22T06:47:58;8.30;;;3.73;;
4148;SDS011;2088;51.032;7.082;2023-07-22T06:50:27;6.10;;;4.07;;
4148;SDS011;2088;51.032;7.082;2023-07-22T06:52:54;8.37;;;4.13;;
4148;SDS011;2088;51.032;7.082;2023-07-22T06:55:21;3.20;;;2.90;;
4148;SDS011;2088;51.032;7.082;2023-07-22T06:57:48;7.10;;;3.40;;
4148;SDS011;2088;51.032;7.082;2023-07-22T07:00:15;6.07;;;3.80;;
4148;SDS011;2088;51.032;7.082;2023-07-22T07:02:42;6.83;;;3.40;;
4148;SDS011;2088;51.032;7.082;2023-07-22T07:05:10;4.87;;;3.50;;
4148;SDS011;2088;51.032;7.082;2023-07-22T07:07:39;7.80;;;4.40;;
4148;SDS011;2088;51.032;7.082;2023-07-22T07:10:07;5.53;;;3.77;;
4148;SDS011;2088;51.032;7.082;2023-07-22T07:12:34;8.40;;;3.60;;
4148;SDS011;2088;51.032;7.082;2023-07-22T07:15:01;4.53;;;3.23;;
4148;SDS011;2088;51.032;7.082;2023-07-22T07:17:28;5.57;;;3.73;;
4148;SDS011;2088;51.032;7.082;2023-07-22T07:19:55;4.97;;;3.17;;
4148;SDS011;2088;51.032;7.082;2023-07-22T07:22:22;11.60;;;4.07;;
4148;SDS011;2088;51.032;7.082;2023-07-22T07:24:51;5.90;;;4.30;;
4148;SDS011;2088;51.032;7.082;2023-07-22T07:27:18;11.00;;;5.27;;
4148;SDS011;2088;51.032;7.082;2023-07-22T07:29:45;9.80;;;3.87;;
4148;SDS011;2088;51.032;7.082;2023-07-22T07:32:12;6.20;;;3.50;;
4148;SDS011;2088;51.032;7.082;2023-07-22T07:34:39;7.40;;;3.67;;
4148;SDS011;2088;51.032;7.082;2023-07-22T07:37:06;4.93;;;3.30;;
4148;SDS011;2088;51.032;7.082;2023-07-22T07:39:33;5.87;;;2.70;;
4148;SDS011;2088;51.032;7.082;2023-07-22T07:42:02;12.53;;;5.00;;
4148;SDS011;2088;51.032;7.082;2023-07-22T07:44:29;5.77;;;3.60;;
4148;SDS011;2088;51.032;7.082;2023-07-22T07:46:56;5.53;;;3.90;;
4148;SDS011;2088;51.032;7.082;2023-07-22T07:49:23;4.37;;;3.57;;
4148;SDS011;2088;51.032;7.082;2023-07-22T07:51:50;7.10;;;3.63;;
4148;SDS011;2088;51.032;7.082;2023-07-22T07:54:17;5.90;;;3.07;;
4148;SDS011;2088;51.032;7.082;2023-07-22T07:56:44;6.70;;;3.93;;
4148;SDS011;2088;51.032;7.082;2023-07-22T07:59:13;5.90;;;3.90;;
4148;SDS011;2088;51.032;7.082;2023-07-22T08:01:40;7.53;;;4.10;;
4148;SDS011;2088;51.032;7.082;2023-07-22T08:04:07;6.40;;;4.03;;
4148;SDS011;2088;51.032;7.082;2023-07-22T08:06:34;4.83;;;3.70;;
4148;SDS011;2088;51.032;7.082;2023-07-22T08:09:02;6.80;;;4.07;;
4148;SDS011;2088;51.032;7.082;2023-07-22T08:11:30;7.47;;;4.30;;
4148;SDS011;2088;51.032;7.082;2023-07-22T08:13:58;10.80;;;3.93;;
4148;SDS011;2088;51.032;7.082;2023-07-22T08:16:26;6.50;;;4.13;;
4148;SDS011;2088;51.032;7.082;2023-07-22T08:18:53;7.93;;;4.13;;
4148;SDS011;2088;51.032;7.082;2023-07-22T08:21:21;6.57;;;3.57;;
4148;SDS011;2088;51.032;7.082;2023-07-22T08:23:48;5.43;;;4.00;;
4148;SDS011;2088;51.032;7.082;2023-07-22T08:26:15;8.70;;;4.80;;
4148;SDS011;2088;51.032;7.082;2023-07-22T08:28:45;7.43;;;4.90;;
4148;SDS011;2088;51.032;7.082;2023-07-22T08:31:13;5.80;;;3.40;;
4148;SDS011;2088;51.032;7.082;2023-07-22T08:33:41;8.20;;;4.57;;
4148;SDS011;2088;51.032;7.082;2023-07-22T08:36:08;5.10;;;3.80;;
4148;SDS011;2088;51.032;7.082;2023-07-22T08:38:35;8.53;;;6.43;;
4148;SDS011;2088;51.032;7.082;2023-07-22T08:41:02;21.43;;;4.30;;
4148;SDS011;2088;51.032;7.082;2023-07-22T08:43:29;8.83;;;3.80;;
4148;SDS011;2088;51.032;7.082;2023-07-22T08:45:58;7.70;;;4.47;;
4148;SDS011;2088;51.032;7.082;2023-07-22T08:48:26;8.80;;;4.17;;
4148;SDS011;2088;51.032;7.082;2023-07-22T08:51:00;6.80;;;4.30;;
4148;SDS011;2088;51.032;7.082;2023-07-22T08:53:27;7.27;;;3.40;;
4148;SDS011;2088;51.032;7.082;2023-07-22T08:55:58;5.90;;;3.10;;
4148;SDS011;2088;51.032;7.082;2023-07-22T08:58:25;6.50;;;4.07;;
4148;SDS011;2088;51.032;7.082;2023-07-22T09:00:52;5.60;;;3.87;;
4148;SDS011;2088;51.032;7.082;2023-07-22T09:03:20;6.07;;;3.40;;
4148;SDS011;2088;51.032;7.082;2023-07-22T09:05:47;5.10;;;3.00;;
4148;SDS011;2088;51.032;7.082;2023-07-22T09:08:16;4.90;;;3.13;;
4148;SDS011;2088;51.032;7.082;2023-07-22T09:10:43;5.00;;;3.30;;
4148;SDS011;2088;51.032;7.082;2023-07-22T09:13:11;5.27;;;3.17;;
4148;SDS011;2088;51.032;7.082;2023-07-22T09:15:40;4.83;;;3.00;;
4148;SDS011;2088;51.032;7.082;2023-07-22T09:18:07;8.20;;;3.83;;
4148;SDS011;2088;51.032;7.082;2023-07-22T09:20:34;4.60;;;2.80;;
4148;SDS011;2088;51.032;7.082;2023-07-22T09:23:01;3.50;;;2.70;;
4148;SDS011;2088;51.032;7.082;2023-07-22T09:25:29;8.93;;;3.50;;
4148;SDS011;2088;51.032;7.082;2023-07-22T09:27:58;3.33;;;2.40;;
4148;SDS011;2088;51.032;7.082;2023-07-22T09:30:26;5.07;;;2.30;;
4148;SDS011;2088;51.032;7.082;2023-07-22T09:32:54;2.60;;;2.00;;
4148;SDS011;2088;51.032;7.082;2023-07-22T09:35:21;5.10;;;2.73;;
4148;SDS011;2088;51.032;7.082;2023-07-22T09:37:48;6.40;;;3.33;;
4148;SDS011;2088;51.032;7.082;2023-07-22T09:40:19;3.90;;;2.80;;
4148;SDS011;2088;51.032;7.082;2023-07-22T09:42:49;5.50;;;3.20;;
4148;SDS011;2088;51.032;7.082;2023-07-22T09:45:16;4.50;;;2.70;;
4148;SDS011;2088;51.032;7.082;2023-07-22T09:47:43;3.67;;;2.57;;
4148;SDS011;2088;51.032;7.082;2023-07-22T09:50:11;7.27;;;2.90;;
4148;SDS011;2088;51.032;7.082;2023-07-22T09:52:45;6.73;;;2.67;;
4148;SDS011;2088;51.032;7.082;2023-07-22T09:55:14;7.33;;;3.13;;
4148;SDS011;2088;51.032;7.082;2023-07-22T09:57:43;4.37;;;2.80;;
4148;SDS011;2088;51.032;7.082;2023-07-22T10:00:12;4.00;;;2.47;;
4148;SDS011;2088;51.032;7.082;2023-07-22T10:02:40;4.13;;;2.70;;
4148;SDS011;2088;51.032;7.082;2023-07-22T10:05:08;3.67;;;2.30;;
4148;SDS011;2088;51.032;7.082;2023-07-22T10:07:38;4.20;;;2.73;;
4148;SDS011;2088;51.032;7.082;2023-07-22T10:10:09;2.50;;;1.80;;
4148;SDS011;2088;51.032;7.082;2023-07-22T10:12:37;3.73;;;2.90;;
4148;SDS011;2088;51.032;7.082;2023-07-22T10:15:05;2.77;;;2.43;;
4148;SDS011;2088;51.032;7.082;2023-07-22T10:17:34;3.57;;;2.30;;
4148;SDS011;2088;51.032;7.082;2023-07-22T10:20:02;5.20;;;3.03;;
4148;SDS011;2088;51.032;7.082;2023-07-22T10:22:34;2.63;;;2.37;;
4148;SDS011;2088;51.032;7.082;2023-07-22T10:25:02;3.73;;;2.67;;
4148;SDS011;2088;51.032;7.082;2023-07-22T10:27:30;3.03;;;2.37;;
4148;SDS011;2088;51.032;7.082;2023-07-22T10:29:58;3.93;;;2.80;;
4148;SDS011;2088;51.032;7.082;2023-07-22T10:32:30;3.87;;;2.37;;
4148;SDS011;2088;51.032;7.082;2023-07-22T10:34:59;3.20;;;2.63;;
4148;SDS011;2088;51.032;7.082;2023-07-22T10:37:29;3.23;;;2.43;;
4148;SDS011;2088;51.032;7.082;2023-07-22T10:39:58;3.10;;;2.17;;
4148;SDS011;2088;51.032;7.082;2023-07-22T10:42:25;4.20;;;2.20;;
4148;SDS011;2088;51.032;7.082;2023-07-22T10:44:52;3.40;;;2.13;;
4148;SDS011;2088;51.032;7.082;2023-07-22T10:47:32;3.93;;;2.30;;
4148;SDS011;2088;51.032;7.082;2023-07-22T10:50:06;2.67;;;1.60;;
4148;SDS011;2088;51.032;7.082;2023-07-22T10:52:38;1.93;;;1.57;;
4148;SDS011;2088;51.032;7.082;2023-07-22T10:55:13;2.10;;;1.67;;
4148;SDS011;2088;51.032;7.082;2023-07-22T10:57:47;2.47;;;1.63;;
4148;SDS011;2088;51.032;7.082;2023-07-22T11:00:17;2.03;;;1.83;;
4148;SDS011;2088;51.032;7.082;2023-07-22T11:02:45;1.80;;;1.70;;
4148;SDS011;2088;51.032;7.082;2023-07-22T11:05:17;3.40;;;1.93;;
4148;SDS011;2088;51.032;7.082;2023-07-22T11:07:44;4.40;;;1.87;;
4148;SDS011;2088;51.032;7.082;2023-07-22T11:10:13;2.23;;;1.47;;
4148;SDS011;2088;51.032;7.082;2023-07-22T11:12:42;2.40;;;1.57;;
4148;SDS011;2088;51.032;7.082;2023-07-22T11:15:10;5.77;;;2.03;;
4148;SDS011;2088;51.032;7.082;2023-07-22T11:17:37;3.77;;;1.90;;
4148;SDS011;2088;51.032;7.082;2023-07-22T11:20:04;2.90;;;1.73;;
4148;SDS011;2088;51.032;7.082;2023-07-22T11:22:33;2.80;;;1.97;;
4148;SDS011;2088;51.032;7.082;2023-07-22T11:25:00;2.47;;;1.90;;
4148;SDS011;2088;51.032;7.082;2023-07-22T11:27:28;6.13;;;2.10;;
4148;SDS011;2088;51.032;7.082;2023-07-22T11:29:57;2.63;;;1.83;;
4148;SDS011;2088;51.032;7.082;2023-07-22T11:32:24;2.40;;;1.87;;
4148;SDS011;2088;51.032;7.082;2023-07-22T11:34:51;2.70;;;1.80;;
4148;SDS011;2088;51.032;7.082;2023-07-22T11:37:18;3.10;;;1.80;;
4148;SDS011;2088;51.032;7.082;2023-07-22T11:39:47;2.70;;;1.70;;
4148;SDS011;2088;51.032;7.082;2023-07-22T11:42:14;1.60;;;1.30;;
4148;SDS011;2088;51.032;7.082;2023-07-22T11:44:42;2.67;;;1.40;;
4148;SDS011;2088;51.032;7.082;2023-07-22T11:47:09;3.43;;;1.77;;
4148;SDS011;2088;51.032;7.082;2023-07-22T11:49:38;3.77;;;2.00;;
4148;SDS011;2088;51.032;7.082;2023-07-22T11:52:06;2.50;;;1.70;;
4148;SDS011;2088;51.032;7.082;2023-07-22T11:54:34;2.37;;;1.60;;
4148;SDS011;2088;51.032;7.082;2023-07-22T11:57:12;3.67;;;1.47;;
4148;SDS011;2088;51.032;7.082;2023-07-22T11:59:40;1.63;;;1.23;;
4148;SDS011;2088;51.032;7.082;2023-07-22T12:02:12;2.10;;;1.50;;
4148;SDS011;2088;51.032;7.082;2023-07-22T12:04:39;2.50;;;1.40;;
4148;SDS011;2088;51.032;7.082;2023-07-22T12:07:06;3.03;;;1.50;;
4148;SDS011;2088;51.032;7.082;2023-07-22T12:09:33;3.13;;;1.70;;
4148;SDS011;2088;51.032;7.082;2023-07-22T12:12:00;1.77;;;1.50;;
4148;SDS011;2088;51.032;7.082;2023-07-22T12:14:35;2.30;;;1.53;;
4148;SDS011;2088;51.032;7.082;2023-07-22T12:17:02;1.73;;;1.50;;
4148;SDS011;2088;51.032;7.082;2023-07-22T12:19:29;5.07;;;1.87;;
4148;SDS011;2088;51.032;7.082;2023-07-22T12:21:56;2.17;;;1.50;;
4148;SDS011;2088;51.032;7.082;2023-07-22T12:24:23;2.77;;;2.10;;
4148;SDS011;2088;51.032;7.082;2023-07-22T12:26:50;2.70;;;1.30;;
4148;SDS011;2088;51.032;7.082;2023-07-22T12:29:17;4.00;;;2.00;;
4148;SDS011;2088;51.032;7.082;2023-07-22T12:31:46;1.90;;;1.60;;
4148;SDS011;2088;51.032;7.082;2023-07-22T12:34:13;2.17;;;1.57;;
4148;SDS011;2088;51.032;7.082;2023-07-22T12:36:40;2.10;;;1.83;;
4148;SDS011;2088;51.032;7.082;2023-07-22T12:39:07;3.20;;;1.80;;
4148;SDS011;2088;51.032;7.082;2023-07-22T12:41:34;2.87;;;1.80;;
4148;SDS011;2088;51.032;7.082;2023-07-22T12:44:01;2.77;;;1.90;;
4148;SDS011;2088;51.032;7.082;2023-07-22T12:46:28;3.30;;;1.63;;
4148;SDS011;2088;51.032;7.082;2023-07-22T12:48:57;2.90;;;1.40;;
4148;SDS011;2088;51.032;7.082;2023-07-22T12:51:24;3.20;;;1.80;;
4148;SDS011;2088;51.032;7.082;2023-07-22T12:53:51;2.93;;;1.87;;
4148;SDS011;2088;51.032;7.082;2023-07-22T12:56:18;4.50;;;1.37;;
4148;SDS011;2088;51.032;7.082;2023-07-22T12:58:45;1.60;;;1.50;;
4148;SDS011;2088;51.032;7.082;2023-07-22T13:01:12;1.80;;;1.50;;
4148;SDS011;2088;51.032;7.082;2023-07-22T13:03:39;3.17;;;1.90;;
4148;SDS011;2088;51.032;7.082;2023-07-22T13:06:07;2.73;;;1.67;;
4148;SDS011;2088;51.032;7.082;2023-07-22T13:08:35;4.40;;;2.13;;
4148;SDS011;2088;51.032;7.082;2023-07-22T13:11:02;1.90;;;1.27;;
4148;SDS011;2088;51.032;7.082;2023-07-22T13:13:29;1.77;;;1.57;;
4148;SDS011;2088;51.032;7.082;2023-07-22T13:15:56;1.93;;;1.50;;
4148;SDS011;2088;51.032;7.082;2023-07-22T13:18:23;2.50;;;2.03;;
4148;SDS011;2088;51.032;7.082;2023-07-22T13:20:50;2.00;;;1.57;;
4148;SDS011;2088;51.032;7.082;2023-07-22T13:23:19;3.00;;;1.63;;
4148;SDS011;2088;51.032;7.082;2023-07-22T13:25:46;15.63;;;1.40;;
4148;SDS011;2088;51.032;7.082;2023-07-22T13:28:13;2.90;;;1.40;;
4148;SDS011;2088;51.032;7.082;2023-07-22T13:30:40;2.37;;;1.57;;
4148;SDS011;2088;51.032;7.082;2023-07-22T13:33:07;5.10;;;1.53;;
4148;SDS011;2088;51.032;7.082;2023-07-22T13:35:34;2.10;;;1.50;;
4148;SDS011;2088;51.032;7.082;2023-07-22T13:38:01;3.30;;;1.43;;
4148;SDS011;2088;51.032;7.082;2023-07-22T13:40:30;2.17;;;1.40;;
4148;SDS011;2088;51.032;7.082;2023-07-22T13:42:57;1.77;;;1.50;;
4148;SDS011;2088;51.032;7.082;2023-07-22T13:45:24;1.93;;;1.53;;
4148;SDS011;2088;51.032;7.082;2023-07-22T13:47:51;1.73;;;1.20;;
4148;SDS011;2088;51.032;7.082;2023-07-22T13:50:18;1.73;;;1.23;;
4148;SDS011;2088;51.032;7.082;2023-07-22T13:52:45;2.43;;;1.40;;
4148;SDS011;2088;51.032;7.082;2023-07-22T13:55:12;1.70;;;1.60;;
4148;SDS011;2088;51.032;7.082;2023-07-22T13:57:41;3.27;;;1.80;;
4148;SDS011;2088;51.032;7.082;2023-07-22T14:00:08;1.70;;;1.60;;
4148;SDS011;2088;51.032;7.082;2023-07-22T14:02:36;1.90;;;1.40;;
4148;SDS011;2088;51.032;7.082;2023-07-22T14:05:04;1.37;;;1.10;;
4148;SDS011;2088;51.032;7.082;2023-07-22T14:07:31;3.33;;;2.13;;
4148;SDS011;2088;51.032;7.082;2023-07-22T14:09:58;4.20;;;1.47;;
4148;SDS011;2088;51.032;7.082;2023-07-22T14:12:25;1.70;;;1.50;;
4148;SDS011;2088;51.032;7.082;2023-07-22T14:14:53;2.47;;;2.07;;
4148;SDS011;2088;51.032;7.082;2023-07-22T14:17:20;2.90;;;1.87;;
4148;SDS011;2088;51.032;7.082;2023-07-22T14:19:47;2.07;;;1.70;;
4148;SDS011;2088;51.032;7.082;2023-07-22T14:22:14;2.43;;;2.20;;
4148;SDS011;2088;51.032;7.082;2023-07-22T14:24:41;2.07;;;1.80;;
4148;SDS011;2088;51.032;7.082;2023-07-22T14:27:08;2.37;;;1.50;;
4148;SDS011;2088;51.032;7.082;2023-07-22T14:29:35;3.50;;;1.90;;
4148;SDS011;2088;51.032;7.082;2023-07-22T14:32:04;2.53;;;1.50;;
4148;SDS011;2088;51.032;7.082;2023-07-22T14:34:31;1.87;;;1.57;;
4148;SDS011;2088;51.032;7.082;2023-07-22T14:36:59;2.00;;;1.50;;
4148;SDS011;2088;51.032;7.082;2023-07-22T14:39:26;2.23;;;1.87;;
4148;SDS011;2088;51.032;7.082;2023-07-22T14:41:53;2.40;;;1.87;;
4148;SDS011;2088;51.032;7.082;2023-07-22T14:44:20;3.73;;;1.87;;
4148;SDS011;2088;51.032;7.082;2023-07-22T14:46:47;2.40;;;1.80;;
4148;SDS011;2088;51.032;7.082;2023-07-22T14:49:16;1.87;;;1.37;;
4148;SDS011;2088;51.032;7.082;2023-07-22T14:51:43;4.67;;;1.70;;
4148;SDS011;2088;51.032;7.082;2023-07-22T14:54:10;2.60;;;1.50;;
4148;SDS011;2088;51.032;7.082;2023-07-22T14:56:37;2.40;;;2.20;;
4148;SDS011;2088;51.032;7.082;2023-07-22T14:59:05;1.70;;;1.60;;
4148;SDS011;2088;51.032;7.082;2023-07-22T15:01:38;3.93;;;2.03;;
4148;SDS011;2088;51.032;7.082;2023-07-22T15:04:05;3.30;;;2.10;;
4148;SDS011;2088;51.032;7.082;2023-07-22T15:06:34;2.10;;;1.90;;
4148;SDS011;2088;51.032;7.082;2023-07-22T15:09:02;5.63;;;2.07;;
4148;SDS011;2088;51.032;7.082;2023-07-22T15:11:31;3.10;;;2.17;;
4148;SDS011;2088;51.032;7.082;2023-07-22T15:13:58;2.67;;;2.23;;
4148;SDS011;2088;51.032;7.082;2023-07-22T15:16:25;6.80;;;1.83;;
4148;SDS011;2088;51.032;7.082;2023-07-22T15:18:52;2.23;;;2.03;;